Time;durP1;ratioP1;P1;durP2;ratioP2;P2;SDS_P1;SDS_P2;PMS_P1;PMS_P2;Temp;Humidity;BMP_temperature;BMP_pressure;BME280_temperature;BME280_humidity;BME280_pressure;Samples;Min_cycle;Max_cycle;Signal;HPM_P1;HPM_P2
2022/04/14 00:01:20;;;;;;;;;;;10.80;99.90;;;;;;5082483;28;19935;-68
2022/04/14 00:03:47;;;;;;;;;;;10.80;99.90;;;;;;5083413;28;19920;-68
2022/04/14 00:06:13;;;;;;;;;;;10.80;99.90;;;;;;5082798;28;19920;-68
2022/04/14 00:08:40;;;;;;;;;;;10.80;99.90;;;;;;5083159;28;20115;-68
2022/04/14 00:11:09;;;;;;;;;;;10.70;99.90;;;;;;5083341;28;19927;-68
2022/04/14 00:13:35;;;;;;;;;;;10.60;99.90;;;;;;5082099;28;20215;-68
2022/04/14 00:16:02;;;;;;;;;;;10.50;99.90;;;;;;5082487;28;19927;-68
2022/04/14 00:18:28;;;;;;;;;;;10.40;99.90;;;;;;5083168;28;19927;-68
2022/04/14 00:20:55;;;;;;;;;;;10.30;99.90;;;;;;5083415;28;19920;-68
2022/04/14 00:23:22;;;;;;;;;;;10.20;99.90;;;;;;5083243;28;19926;-68
2022/04/14 00:25:49;;;;;;;;;;;10.20;99.90;;;;;;5082488;28;19976;-68
2022/04/14 00:28:17;;;;;;;;;;;10.20;99.90;;;;;;5083132;28;19924;-68
2022/04/14 00:30:43;;;;;;;;;;;10.20;99.90;;;;;;5083226;28;19920;-69
2022/04/14 00:33:10;;;;;;;;;;;10.10;99.90;;;;;;5083231;28;19925;-68
2022/04/14 00:35:36;;;;;;;;;;;10.10;99.90;;;;;;5082855;28;19951;-68
2022/04/14 00:38:03;;;;;;;;;;;10.10;99.90;;;;;;5082856;28;19942;-68
2022/04/14 00:40:30;;;;;;;;;;;10.10;99.90;;;;;;5082795;28;20139;-68
2022/04/14 00:42:56;;;;;;;;;;;10.10;99.90;;;;;;5083107;28;19920;-67
2022/04/14 00:45:24;;;;;;;;;;;10.10;99.90;;;;;;5082157;28;19926;-68
2022/04/14 00:47:51;;;;;;;;;;;10.00;99.90;;;;;;5083117;28;19921;-68
2022/04/14 00:50:18;;;;;;;;;;;10.00;99.90;;;;;;5082577;28;19975;-68
2022/04/14 00:52:45;;;;;;;;;;;9.90;99.90;;;;;;5082844;28;20128;-68
2022/04/14 00:55:12;;;;;;;;;;;9.90;99.90;;;;;;5082414;28;19959;-68
2022/04/14 00:57:38;;;;;;;;;;;9.90;99.90;;;;;;5082889;28;19920;-68
2022/04/14 01:00:06;;;;;;;;;;;9.80;99.90;;;;;;5082769;28;19920;-68
2022/04/14 01:02:34;;;;;;;;;;;9.80;99.90;;;;;;5082779;28;20115;-68
2022/04/14 01:05:01;;;;;;;;;;;9.80;99.90;;;;;;5082332;28;19931;-68
2022/04/14 01:07:28;;;;;;;;;;;9.80;99.90;;;;;;5082333;28;19926;-68
2022/04/14 01:09:56;;;;;;;;;;;9.70;99.90;;;;;;5083090;28;19928;-68
2022/04/14 01:12:23;;;;;;;;;;;9.70;99.90;;;;;;5082677;28;19926;-70
2022/04/14 01:14:50;;;;;;;;;;;9.60;99.90;;;;;;5082903;28;19927;-68
2022/04/14 01:17:16;;;;;;;;;;;9.60;99.90;;;;;;5082494;28;19920;-68
2022/04/14 01:19:44;;;;;;;;;;;9.50;99.90;;;;;;5082511;28;19921;-68
2022/04/14 01:22:12;;;;;;;;;;;9.50;99.90;;;;;;5082367;28;19920;-68
2022/04/14 01:24:40;;;;;;;;;;;9.50;99.90;;;;;;5082373;28;19925;-68
2022/04/14 01:27:07;;;;;;;;;;;9.40;99.90;;;;;;5083010;28;19928;-68
2022/04/14 01:29:34;;;;;;;;;;;9.40;99.90;;;;;;5086607;28;19920;-68
2022/04/14 01:32:01;;;;;;;;;;;9.50;99.90;;;;;;5086128;28;19930;-68
2022/04/14 01:34:30;;;;;;;;;;;9.40;99.90;;;;;;5085819;28;19920;-68
2022/04/14 01:36:56;;;;;;;;;;;9.40;99.90;;;;;;5085529;28;20199;-68
2022/04/14 01:39:23;;;;;;;;;;;9.40;99.90;;;;;;5086388;28;19921;-68
2022/04/14 01:41:51;;;;;;;;;;;9.40;99.90;;;;;;5086162;28;19927;-67
2022/04/14 01:44:17;;;;;;;;;;;9.30;99.90;;;;;;5084879;28;20204;-68
2022/04/14 01:46:44;;;;;;;;;;;9.30;99.90;;;;;;5085744;28;19999;-68
2022/04/14 01:49:11;;;;;;;;;;;9.20;99.90;;;;;;5085260;28;19920;-67
2022/04/14 01:51:37;;;;;;;;;;;9.20;99.90;;;;;;5086155;28;19921;-68
2022/04/14 01:54:04;;;;;;;;;;;9.20;99.90;;;;;;5085813;28;20094;-68
2022/04/14 01:56:31;;;;;;;;;;;9.20;99.90;;;;;;5085474;28;19920;-68
2022/04/14 01:58:59;;;;;;;;;;;9.20;99.90;;;;;;5085647;28;20212;-69
2022/04/14 02:01:26;;;;;;;;;;;9.10;99.90;;;;;;5086245;28;19920;-68
2022/04/14 02:03:54;;;;;;;;;;;9.10;99.90;;;;;;5085298;28;19920;-68
2022/04/14 02:06:20;;;;;;;;;;;9.20;99.90;;;;;;5076152;28;19966;-68
2022/04/14 02:08:47;;;;;;;;;;;9.10;99.90;;;;;;5065850;28;19920;-68
2022/04/14 02:11:14;;;;;;;;;;;9.10;99.90;;;;;;5070172;28;19987;-68
2022/04/14 02:13:40;;;;;;;;;;;9.10;99.90;;;;;;5085508;28;20235;-68
2022/04/14 02:16:08;;;;;;;;;;;9.10;99.90;;;;;;5122719;23;19927;-68
2022/04/14 02:18:35;;;;;;;;;;;9.00;99.90;;;;;;5105782;28;19987;-68
2022/04/14 02:21:01;;;;;;;;;;;9.00;99.90;;;;;;5086744;28;19920;-71
2022/04/14 02:23:28;;;;;;;;;;;8.90;99.90;;;;;;5094536;28;20140;-71
2022/04/14 02:25:55;;;;;;;;;;;8.80;99.90;;;;;;5090045;28;19920;-71
2022/04/14 02:28:21;;;;;;;;;;;8.80;99.90;;;;;;5085430;28;19921;-71
2022/04/14 02:30:48;;;;;;;;;;;8.80;99.90;;;;;;5085077;28;19927;-71
2022/04/14 02:33:16;;;;;;;;;;;8.80;99.90;;;;;;5085396;28;20224;-71
2022/04/14 02:35:43;;;;;;;;;;;8.70;99.90;;;;;;5084804;28;19921;-71
2022/04/14 02:38:09;;;;;;;;;;;8.70;99.90;;;;;;5085271;28;19926;-68
2022/04/14 02:40:36;;;;;;;;;;;8.70;99.90;;;;;;5084573;28;20168;-71
2022/04/14 02:43:03;;;;;;;;;;;8.60;99.90;;;;;;5085493;28;19927;-71
2022/04/14 02:45:29;;;;;;;;;;;8.50;99.90;;;;;;5084791;28;19920;-71
2022/04/14 02:47:56;;;;;;;;;;;8.50;99.90;;;;;;5084913;28;19920;-71
2022/04/14 02:50:24;;;;;;;;;;;8.40;99.90;;;;;;5084969;28;19920;-71
2022/04/14 02:52:51;;;;;;;;;;;8.40;99.90;;;;;;5085148;28;19920;-71
2022/04/14 02:55:19;;;;;;;;;;;8.40;99.90;;;;;;5084782;28;19927;-68
2022/04/14 02:57:46;;;;;;;;;;;8.40;99.90;;;;;;5084750;28;19959;-71
2022/04/14 03:00:14;;;;;;;;;;;8.40;99.90;;;;;;5084787;28;19932;-71
2022/04/14 03:02:40;;;;;;;;;;;8.40;99.90;;;;;;5084789;28;19962;-71
2022/04/14 03:05:07;;;;;;;;;;;8.40;99.90;;;;;;5084071;28;19927;-67
2022/04/14 03:07:36;;;;;;;;;;;8.50;99.90;;;;;;5084563;28;19927;-68
2022/04/14 03:10:03;;;;;;;;;;;8.50;99.90;;;;;;5084444;28;19928;-70
2022/04/14 03:12:39;;;;;;;;;;;8.50;99.90;;;;;;5084380;28;19928;-71
2022/04/14 03:15:06;;;;;;;;;;;8.40;99.90;;;;;;5084368;28;20126;-70
2022/04/14 03:17:32;;;;;;;;;;;8.40;99.90;;;;;;5084406;28;19920;-70
2022/04/14 03:19:59;;;;;;;;;;;8.40;99.90;;;;;;5084343;28;19921;-71
2022/04/14 03:22:26;;;;;;;;;;;8.30;99.90;;;;;;5084236;28;19927;-71
2022/04/14 03:24:55;;;;;;;;;;;8.30;99.90;;;;;;5084361;28;19920;-71
2022/04/14 03:27:21;;;;;;;;;;;8.30;99.90;;;;;;5084026;28;19921;-71
2022/04/14 03:29:48;;;;;;;;;;;8.10;99.90;;;;;;5084178;28;20101;-68
2022/04/14 03:32:14;;;;;;;;;;;8.10;99.90;;;;;;5084281;28;19943;-68
2022/04/14 03:34:41;;;;;;;;;;;8.00;99.90;;;;;;5083586;28;19942;-70
2022/04/14 03:37:08;;;;;;;;;;;8.00;99.90;;;;;;5083848;28;20211;-70
2022/04/14 03:39:34;;;;;;;;;;;8.00;99.90;;;;;;5083812;28;20124;-69
2022/04/14 03:42:02;;;;;;;;;;;7.90;99.90;;;;;;5084004;28;19926;-70
2022/04/14 03:44:29;;;;;;;;;;;7.90;99.90;;;;;;5083107;28;20207;-71
2022/04/14 03:46:55;;;;;;;;;;;7.80;99.90;;;;;;5083313;28;19928;-71
2022/04/14 03:49:22;;;;;;;;;;;7.70;99.90;;;;;;5083629;28;20139;-71
2022/04/14 03:51:49;;;;;;;;;;;7.70;99.90;;;;;;5083631;28;19920;-71
2022/04/14 03:54:15;;;;;;;;;;;7.70;99.90;;;;;;5083374;28;19967;-70
2022/04/14 03:56:42;;;;;;;;;;;7.70;99.90;;;;;;5083378;28;19927;-70
2022/04/14 03:59:13;;;;;;;;;;;7.60;99.90;;;;;;5083673;28;19920;-71
2022/04/14 04:01:39;;;;;;;;;;;7.60;99.90;;;;;;5083615;28;19984;-71
2022/04/14 04:04:06;;;;;;;;;;;7.60;99.90;;;;;;5083047;28;20230;-71
2022/04/14 04:06:33;;;;;;;;;;;7.60;99.90;;;;;;5083099;28;19921;-70
2022/04/14 04:08:59;;;;;;;;;;;7.60;99.90;;;;;;5083371;28;19920;-71
2022/04/14 04:11:26;;;;;;;;;;;7.60;99.90;;;;;;5083295;28;19921;-71
2022/04/14 04:13:52;;;;;;;;;;;7.70;99.90;;;;;;5083415;28;20207;-71
2022/04/14 04:16:20;;;;;;;;;;;7.70;99.90;;;;;;5082659;28;20203;-71
2022/04/14 04:18:47;;;;;;;;;;;7.70;99.90;;;;;;5083269;28;19921;-70
2022/04/14 04:21:13;;;;;;;;;;;7.70;99.90;;;;;;5083299;28;19920;-70
2022/04/14 04:23:40;;;;;;;;;;;7.70;99.90;;;;;;5083515;28;19920;-70
2022/04/14 04:26:07;;;;;;;;;;;7.60;99.90;;;;;;5083031;28;19920;-71
2022/04/14 04:28:33;;;;;;;;;;;7.60;99.90;;;;;;5083232;28;19921;-71
2022/04/14 04:31:00;;;;;;;;;;;7.70;99.90;;;;;;5083365;28;19942;-71
2022/04/14 04:33:28;;;;;;;;;;;7.60;99.90;;;;;;5083134;28;19931;-71
2022/04/14 04:35:54;;;;;;;;;;;7.60;99.90;;;;;;5082656;28;19927;-70
2022/04/14 04:38:21;;;;;;;;;;;7.60;99.90;;;;;;5082885;28;19920;-71
2022/04/14 04:40:47;;;;;;;;;;;7.60;99.90;;;;;;5083052;28;20212;-68
2022/04/14 04:43:15;;;;;;;;;;;7.50;99.90;;;;;;5083177;28;19920;-71
2022/04/14 04:45:42;;;;;;;;;;;7.50;99.90;;;;;;5081849;28;19925;-71
2022/04/14 04:48:08;;;;;;;;;;;7.50;99.90;;;;;;5082877;28;19927;-71
2022/04/14 04:50:36;;;;;;;;;;;7.50;99.90;;;;;;5082672;28;19921;-71
2022/04/14 04:53:04;;;;;;;;;;;7.40;99.90;;;;;;5082865;28;19926;-71
2022/04/14 04:55:31;;;;;;;;;;;7.40;99.90;;;;;;5082902;28;19920;-71
2022/04/14 04:57:58;;;;;;;;;;;7.40;99.90;;;;;;5082905;28;19920;-70
2022/04/14 05:00:24;;;;;;;;;;;7.40;99.90;;;;;;5082977;28;19927;-70
2022/04/14 05:02:51;;;;;;;;;;;7.40;99.90;;;;;;5084740;28;19921;-70
2022/04/14 05:05:21;;;;;;;;;;;7.40;99.90;;;;;;5086692;28;19924;-70
2022/04/14 05:07:49;;;;;;;;;;;7.40;99.90;;;;;;5086837;28;19943;-70
2022/04/14 05:10:16;;;;;;;;;;;7.40;99.90;;;;;;5086933;28;19943;-70
2022/04/14 05:12:43;;;;;;;;;;;7.40;99.90;;;;;;5086942;28;19920;-70
2022/04/14 05:15:10;;;;;;;;;;;7.50;99.90;;;;;;5086054;28;19951;-67
2022/04/14 05:17:37;;;;;;;;;;;7.50;99.90;;;;;;5086325;28;19921;-67
2022/04/14 05:20:03;;;;;;;;;;;7.50;99.90;;;;;;5086649;28;19948;-67
2022/04/14 05:22:30;;;;;;;;;;;7.50;99.90;;;;;;5086734;28;19926;-70
2022/04/14 05:24:58;;;;;;;;;;;7.50;99.90;;;;;;5086647;28;19927;-69
2022/04/14 05:27:25;;;;;;;;;;;7.60;99.90;;;;;;5085507;28;19966;-68
2022/04/14 05:29:51;;;;;;;;;;;7.70;99.90;;;;;;5086106;28;19932;-70
2022/04/14 05:32:18;;;;;;;;;;;7.70;99.90;;;;;;5086200;28;19955;-70
2022/04/14 05:34:44;;;;;;;;;;;7.80;99.90;;;;;;5086216;28;19983;-72
2022/04/14 05:37:11;;;;;;;;;;;7.90;99.90;;;;;;5085946;28;19920;-70
2022/04/14 05:39:38;;;;;;;;;;;7.90;99.90;;;;;;5082407;28;19920;-70
2022/04/14 05:42:06;;;;;;;;;;;8.00;99.90;;;;;;5085567;28;19920;-70
2022/04/14 05:44:33;;;;;;;;;;;8.00;99.90;;;;;;5083459;28;19920;-70
2022/04/14 05:47:00;;;;;;;;;;;8.10;99.90;;;;;;5085144;28;19920;-70
2022/04/14 05:49:27;;;;;;;;;;;8.10;99.90;;;;;;5085487;28;20219;-69
2022/04/14 05:51:53;;;;;;;;;;;8.20;99.90;;;;;;5085802;28;19920;-69
2022/04/14 05:54:20;;;;;;;;;;;8.30;99.90;;;;;;5086016;28;19928;-69
2022/04/14 05:56:46;;;;;;;;;;;8.30;99.90;;;;;;5085718;28;19924;-69
2022/04/14 05:59:16;;;;;;;;;;;8.30;99.90;;;;;;5085513;28;20266;-67
2022/04/14 06:01:43;;;;;;;;;;;8.30;99.90;;;;;;5086400;28;19925;-69
2022/04/14 06:04:10;;;;;;;;;;;8.30;99.90;;;;;;5085340;28;19927;-69
2022/04/14 06:06:36;;;;;;;;;;;8.40;99.90;;;;;;5085571;28;20266;-69
2022/04/14 06:09:03;;;;;;;;;;;8.40;99.90;;;;;;5085302;28;19920;-69
2022/04/14 06:11:30;;;;;;;;;;;8.50;99.90;;;;;;5085558;28;20290;-69
2022/04/14 06:13:56;;;;;;;;;;;8.60;99.90;;;;;;5084153;28;19928;-69
2022/04/14 06:16:24;;;;;;;;;;;8.60;99.90;;;;;;5085183;28;19921;-69
2022/04/14 06:18:51;;;;;;;;;;;8.70;99.90;;;;;;5085694;28;19996;-69
2022/04/14 06:21:18;;;;;;;;;;;8.70;99.90;;;;;;5085663;28;19920;-69
2022/04/14 06:23:45;;;;;;;;;;;8.80;99.90;;;;;;5087963;28;20221;-69
2022/04/14 06:26:11;;;;;;;;;;;8.80;99.90;;;;;;5084760;28;19979;-69
2022/04/14 06:28:39;;;;;;;;;;;8.90;99.90;;;;;;5082740;28;19935;-69
2022/04/14 06:31:06;;;;;;;;;;;9.00;99.90;;;;;;5085185;28;19921;-69
2022/04/14 06:33:33;;;;;;;;;;;9.00;99.90;;;;;;5084877;28;19929;-69
2022/04/14 06:36:00;;;;;;;;;;;9.10;99.90;;;;;;5085186;28;19947;-68
2022/04/14 06:38:27;;;;;;;;;;;9.20;99.90;;;;;;5085092;28;19987;-69
2022/04/14 06:40:54;;;;;;;;;;;9.30;99.90;;;;;;5085123;28;19927;-69
2022/04/14 06:43:20;;;;;;;;;;;9.30;99.90;;;;;;5084380;28;19984;-69
2022/04/14 06:45:47;;;;;;;;;;;9.40;99.90;;;;;;5084541;28;19921;-69
2022/04/14 06:48:14;;;;;;;;;;;9.50;99.90;;;;;;5085145;28;19920;-69
2022/04/14 06:50:42;;;;;;;;;;;9.60;99.90;;;;;;5084748;28;19927;-68
2022/04/14 06:53:09;;;;;;;;;;;9.70;99.90;;;;;;5084217;28;19920;-69
2022/04/14 06:55:37;;;;;;;;;;;9.70;99.90;;;;;;5084260;28;19943;-69
2022/04/14 06:58:04;;;;;;;;;;;9.90;99.90;;;;;;5085175;28;20216;-69
2022/04/14 07:00:30;;;;;;;;;;;9.90;99.90;;;;;;5084885;28;19920;-69
2022/04/14 07:02:57;;;;;;;;;;;10.00;99.90;;;;;;5081756;28;19935;-69
2022/04/14 07:05:24;;;;;;;;;;;10.00;99.90;;;;;;5076880;28;19921;-69
2022/04/14 07:07:52;;;;;;;;;;;10.10;99.90;;;;;;5075734;28;20203;-69
2022/04/14 07:10:19;;;;;;;;;;;10.10;99.90;;;;;;5083527;28;19928;-69
2022/04/14 07:12:46;;;;;;;;;;;10.20;99.90;;;;;;5082845;28;20216;-69
2022/04/14 07:15:12;;;;;;;;;;;10.30;99.90;;;;;;5084467;28;20120;-70
2022/04/14 07:17:39;;;;;;;;;;;10.30;99.90;;;;;;5079797;28;19935;-69
2022/04/14 07:20:09;;;;;;;;;;;10.40;99.90;;;;;;5080554;28;19920;-69
2022/04/14 07:22:41;;;;;;;;;;;10.40;99.90;;;;;;5073407;28;19920;-69
2022/04/14 07:25:10;;;;;;;;;;;10.40;99.90;;;;;;5083741;28;20130;-69
2022/04/14 07:27:36;;;;;;;;;;;10.50;99.90;;;;;;5083531;28;19934;-70
2022/04/14 07:30:03;;;;;;;;;;;10.70;99.90;;;;;;5083498;28;19927;-70
2022/04/14 07:32:34;;;;;;;;;;;10.70;99.90;;;;;;5080922;28;19942;-70
2022/04/14 07:35:01;;;;;;;;;;;10.80;99.90;;;;;;5080736;28;19927;-69
2022/04/14 07:37:27;;;;;;;;;;;10.90;99.90;;;;;;5083655;28;19920;-70
2022/04/14 07:39:54;;;;;;;;;;;10.90;99.90;;;;;;5083822;28;19954;-69
2022/04/14 07:42:22;;;;;;;;;;;11.00;99.90;;;;;;5083494;28;19927;-70
2022/04/14 07:44:49;;;;;;;;;;;11.00;99.90;;;;;;5084140;28;20120;-70
2022/04/14 07:47:16;;;;;;;;;;;11.00;99.90;;;;;;5083506;28;19970;-70
2022/04/14 07:49:42;;;;;;;;;;;11.00;99.90;;;;;;5083106;28;19928;-70
2022/04/14 07:52:09;;;;;;;;;;;11.10;99.90;;;;;;5083401;28;19983;-70
2022/04/14 07:54:36;;;;;;;;;;;11.20;99.90;;;;;;5083765;28;19921;-70
2022/04/14 07:57:02;;;;;;;;;;;11.30;99.90;;;;;;5082625;28;19942;-68
2022/04/14 07:59:30;;;;;;;;;;;11.40;99.90;;;;;;5083193;28;19920;-70
2022/04/14 08:02:00;;;;;;;;;;;11.50;99.90;;;;;;5082921;28;19921;-69
2022/04/14 08:04:27;;;;;;;;;;;11.60;99.90;;;;;;5083337;28;20180;-69
2022/04/14 08:06:54;;;;;;;;;;;11.80;99.90;;;;;;5082792;28;19920;-70
2022/04/14 08:09:20;;;;;;;;;;;11.90;99.90;;;;;;5082580;28;20239;-70
2022/04/14 08:11:47;;;;;;;;;;;12.00;99.90;;;;;;5083235;28;19920;-69
2022/04/14 08:14:14;;;;;;;;;;;12.10;99.90;;;;;;5082798;28;19927;-69
2022/04/14 08:16:42;;;;;;;;;;;12.20;99.90;;;;;;5083699;28;19987;-70
2022/04/14 08:19:08;;;;;;;;;;;12.30;99.90;;;;;;5082485;28;19920;-71
2022/04/14 08:21:35;;;;;;;;;;;12.50;99.90;;;;;;5083610;28;19926;-69
2022/04/14 08:24:03;;;;;;;;;;;12.60;99.90;;;;;;5083707;28;19921;-70
2022/04/14 08:26:29;;;;;;;;;;;12.70;99.90;;;;;;5082816;28;20226;-69
2022/04/14 08:28:58;;;;;;;;;;;12.80;99.90;;;;;;5082696;28;19928;-70
2022/04/14 08:31:24;;;;;;;;;;;13.00;99.90;;;;;;5081728;28;20405;-70
2022/04/14 08:33:52;;;;;;;;;;;13.10;99.90;;;;;;5083087;28;19927;-69
2022/04/14 08:36:21;;;;;;;;;;;13.30;99.90;;;;;;5082085;28;19927;-70
2022/04/14 08:38:49;;;;;;;;;;;13.50;99.90;;;;;;5082403;28;20249;-69
2022/04/14 08:41:17;;;;;;;;;;;13.60;99.90;;;;;;5083254;28;19934;-69
2022/04/14 08:43:46;;;;;;;;;;;13.80;99.90;;;;;;5081372;28;20231;-69
2022/04/14 08:46:14;;;;;;;;;;;13.90;99.90;;;;;;5082615;28;19921;-70
2022/04/14 08:48:40;;;;;;;;;;;14.00;99.90;;;;;;5082557;28;19935;-70
2022/04/14 08:51:10;;;;;;;;;;;14.10;99.90;;;;;;5082917;28;19952;-70
2022/04/14 08:53:39;;;;;;;;;;;14.20;99.90;;;;;;5082905;28;19920;-70
2022/04/14 08:56:07;;;;;;;;;;;14.30;99.90;;;;;;5082668;28;19966;-70
2022/04/14 08:58:33;;;;;;;;;;;14.40;99.90;;;;;;5082696;28;19921;-70
2022/04/14 09:01:00;;;;;;;;;;;14.60;99.90;;;;;;5082607;28;19979;-68
2022/04/14 09:03:28;;;;;;;;;;;14.70;99.90;;;;;;5082739;28;19920;-70
2022/04/14 09:05:55;;;;;;;;;;;14.90;99.90;;;;;;5082507;28;19987;-70
2022/04/14 09:08:23;;;;;;;;;;;15.00;99.90;;;;;;5083129;28;19962;-70
2022/04/14 09:10:50;;;;;;;;;;;15.20;99.90;;;;;;5082353;28;20161;-70
2022/04/14 09:13:17;;;;;;;;;;;15.20;99.90;;;;;;5077411;28;19924;-69
2022/04/14 09:15:45;;;;;;;;;;;15.30;99.90;;;;;;5063489;28;19920;-70
2022/04/14 09:18:12;;;;;;;;;;;15.40;99.90;;;;;;5078656;28;19921;-70
2022/04/14 09:20:41;;;;;;;;;;;15.60;99.90;;;;;;5082597;28;19944;-69
2022/04/14 09:23:15;;;;;;;;;;;15.70;99.90;;;;;;5082771;28;19920;-70
2022/04/14 09:25:43;;;;;;;;;;;15.80;99.90;;;;;;5080393;28;19921;-70
2022/04/14 09:28:10;;;;;;;;;;;16.00;99.90;;;;;;5062808;28;19921;-70
2022/04/14 09:30:37;;;;;;;;;;;16.00;99.90;;;;;;5082653;28;19950;-68
2022/04/14 09:33:04;;;;;;;;;;;16.00;99.90;;;;;;5082181;28;19958;-68
2022/04/14 09:35:32;;;;;;;;;;;16.20;99.90;;;;;;5082211;28;19920;-68
2022/04/14 09:38:02;;;;;;;;;;;16.20;99.90;;;;;;5082597;28;20089;-70
2022/04/14 09:40:30;;;;;;;;;;;16.30;99.90;;;;;;5081765;28;19966;-69
2022/04/14 09:42:57;;;;;;;;;;;16.30;99.90;;;;;;5079088;28;19946;-69
2022/04/14 09:45:25;;;;;;;;;;;16.40;99.90;;;;;;5071027;28;20230;-69
2022/04/14 09:47:52;;;;;;;;;;;16.50;99.90;;;;;;5082426;28;19963;-69
2022/04/14 09:50:27;;;;;;;;;;;16.60;99.90;;;;;;5066304;28;19928;-69
2022/04/14 09:52:56;;;;;;;;;;;16.80;99.90;;;;;;5072893;28;19927;-69
2022/04/14 09:55:23;;;;;;;;;;;17.00;99.90;;;;;;5080644;28;19921;-69
2022/04/14 09:58:05;;;;;;;;;;;17.10;99.90;;;;;;5086203;28;19920;-69
2022/04/14 10:00:36;;;;;;;;;;;17.10;99.90;;;;;;5085711;28;19991;-69
2022/04/14 10:03:08;;;;;;;;;;;17.30;99.90;;;;;;5077167;28;19920;-69
2022/04/14 10:05:35;;;;;;;;;;;17.40;99.90;;;;;;5085334;28;20212;-69
2022/04/14 10:08:02;;;;;;;;;;;17.60;99.90;;;;;;5085792;28;20234;-69
2022/04/14 10:10:29;;;;;;;;;;;17.70;99.90;;;;;;5085710;28;19962;-69
2022/04/14 10:13:05;;;;;;;;;;;17.80;99.90;;;;;;5085252;28;20212;-69
2022/04/14 10:15:32;;;;;;;;;;;18.00;99.90;;;;;;5085130;28;19924;-69
2022/04/14 10:17:59;;;;;;;;;;;18.20;99.90;;;;;;5085703;28;19921;-69
2022/04/14 10:20:26;;;;;;;;;;;18.30;99.90;;;;;;5084474;28;19926;-69
2022/04/14 10:22:53;;;;;;;;;;;18.50;99.90;;;;;;5084169;28;19927;-68
2022/04/14 10:25:19;;;;;;;;;;;18.60;99.90;;;;;;5085250;28;19920;-69
2022/04/14 10:27:47;;;;;;;;;;;18.70;99.90;;;;;;5085582;28;19924;-70
2022/04/14 10:30:19;;;;;;;;;;;18.80;99.90;;;;;;5084954;28;19927;-69
2022/04/14 10:32:47;;;;;;;;;;;18.90;99.90;;;;;;5085214;28;20216;-69
2022/04/14 10:35:13;;;;;;;;;;;19.00;99.90;;;;;;5084864;28;19921;-70
2022/04/14 10:37:43;;;;;;;;;;;19.20;99.90;;;;;;5085349;28;19921;-69
2022/04/14 10:40:10;;;;;;;;;;;19.30;99.90;;;;;;5083321;28;19920;-69
2022/04/14 10:42:37;;;;;;;;;;;19.40;99.90;;;;;;5083242;28;20013;-68
2022/04/14 10:45:15;;;;;;;;;;;19.50;99.90;;;;;;5082762;28;20228;-69
2022/04/14 10:47:55;;;;;;;;;;;19.50;99.90;;;;;;5081849;28;19994;-69
2022/04/14 10:50:23;;;;;;;;;;;19.50;99.90;;;;;;5083978;28;19920;-70
2022/04/14 10:53:03;;;;;;;;;;;19.70;99.90;;;;;;5083809;28;19920;-70
2022/04/14 10:55:37;;;;;;;;;;;19.80;99.90;;;;;;5084368;28;19920;-70
2022/04/14 10:58:04;;;;;;;;;;;19.90;99.90;;;;;;5084836;28;19984;-70
2022/04/14 11:00:34;;;;;;;;;;;20.00;99.90;;;;;;5083991;28;19946;-70
2022/04/14 11:03:03;;;;;;;;;;;20.10;99.90;;;;;;5084591;28;20224;-70
2022/04/14 11:05:39;;;;;;;;;;;20.20;99.90;;;;;;5083541;28;19983;-70
2022/04/14 11:08:20;;;;;;;;;;;20.30;99.90;;;;;;5084670;28;19926;-69
2022/04/14 11:10:52;;;;;;;;;;;20.50;99.90;;;;;;5084183;28;19921;-70
2022/04/14 11:13:19;;;;;;;;;;;20.60;99.90;;;;;;5084203;28;19992;-70
2022/04/14 11:15:47;;;;;;;;;;;20.80;99.90;;;;;;5083357;28;20280;-70
2022/04/14 11:18:16;;;;;;;;;;;20.90;99.90;;;;;;5084149;28;20119;-70
2022/04/14 11:20:58;;;;;;;;;;;21.10;99.90;;;;;;5084330;28;19920;-70
2022/04/14 11:23:26;;;;;;;;;;;21.20;99.90;;;;;;5084147;28;19920;-70
2022/04/14 11:25:53;;;;;;;;;;;21.30;99.90;;;;;;5083915;28;19927;-71
2022/04/14 11:28:21;;;;;;;;;;;21.40;99.90;;;;;;5083222;28;19980;-69
2022/04/14 11:30:48;;;;;;;;;;;21.50;99.90;;;;;;5083083;28;19921;-71
2022/04/14 11:33:21;;;;;;;;;;;21.60;99.90;;;;;;5082978;28;19920;-71
2022/04/14 11:35:48;;;;;;;;;;;21.80;99.90;;;;;;5083068;28;20221;-70
2022/04/14 11:38:35;;;;;;;;;;;22.00;99.90;;;;;;5083243;28;19927;-68
2022/04/14 11:41:02;;;;;;;;;;;22.00;99.90;;;;;;5082771;28;19928;-69
2022/04/14 11:43:28;;;;;;;;;;;22.10;99.90;;;;;;5083963;28;20299;-69
2022/04/14 11:45:56;;;;;;;;;;;22.30;99.90;;;;;;5083393;28;19943;-70
2022/04/14 11:48:28;;;;;;;;;;;22.30;99.90;;;;;;5083229;28;19987;-69
2022/04/14 11:50:56;;;;;;;;;;;22.30;99.90;;;;;;5080916;28;19928;-70
2022/04/14 11:53:29;;;;;;;;;;;22.30;99.90;;;;;;5081182;28;20116;-70
2022/04/14 11:55:56;;;;;;;;;;;22.40;99.90;;;;;;5071442;28;19927;-69
2022/04/14 11:58:23;;;;;;;;;;;22.40;99.90;;;;;;5083906;28;20116;-70
2022/04/14 12:00:51;;;;;;;;;;;22.50;99.90;;;;;;5083825;28;20154;-70
2022/04/14 12:03:29;;;;;;;;;;;22.60;99.90;;;;;;5083431;28;19926;-70
2022/04/14 12:06:02;;;;;;;;;;;22.60;99.90;;;;;;5082355;28;19928;-69
2022/04/14 12:08:29;;;;;;;;;;;22.80;99.90;;;;;;5083347;28;20111;-68
2022/04/14 12:10:55;;;;;;;;;;;22.70;99.90;;;;;;5082796;28;19921;-69
2022/04/14 12:13:24;;;;;;;;;;;22.80;99.90;;;;;;5082632;28;20231;-68
2022/04/14 12:16:00;;;;;;;;;;;22.80;99.90;;;;;;5081862;28;19921;-68
2022/04/14 12:18:27;;;;;;;;;;;22.80;99.90;;;;;;5082375;28;20216;-69
2022/04/14 12:20:53;;;;;;;;;;;22.80;99.90;;;;;;5082623;28;19927;-68
2022/04/14 12:23:21;;;;;;;;;;;23.00;99.90;;;;;;5077806;28;19920;-69
2022/04/14 12:25:48;;;;;;;;;;;22.90;99.90;;;;;;5068969;28;19947;-69
2022/04/14 12:28:14;;;;;;;;;;;22.90;99.90;;;;;;5064559;28;19921;-68
2022/04/14 12:30:46;;;;;;;;;;;22.80;99.90;;;;;;5062930;28;19939;-69
2022/04/14 12:33:14;;;;;;;;;;;22.80;99.90;;;;;;5078860;28;20231;-68
2022/04/14 12:35:41;;;;;;;;;;;23.00;99.90;;;;;;5082709;28;19921;-68
2022/04/14 12:38:11;;;;;;;;;;;23.20;99.90;;;;;;5083275;28;19925;-69
2022/04/14 12:40:52;;;;;;;;;;;23.40;99.90;;;;;;5083099;28;19924;-69
2022/04/14 12:43:21;;;;;;;;;;;23.40;99.90;;;;;;5083036;28;19920;-69
2022/04/14 12:45:48;;;;;;;;;;;23.60;99.90;;;;;;5083011;28;19962;-69
2022/04/14 12:48:25;;;;;;;;;;;23.80;99.90;;;;;;5082937;28;19999;-69
2022/04/14 12:50:54;;;;;;;;;;;24.00;99.90;;;;;;5083132;28;20216;-69
2022/04/14 12:53:23;;;;;;;;;;;23.90;99.90;;;;;;5082910;28;19921;-69
2022/04/14 12:55:52;;;;;;;;;;;24.00;99.90;;;;;;5082037;28;19951;-69
2022/04/14 12:58:19;;;;;;;;;;;23.80;99.90;;;;;;5098060;28;19921;-69
2022/04/14 13:00:45;;;;;;;;;;;23.90;99.90;;;;;;5103429;28;19920;-69
2022/04/14 13:03:16;;;;;;;;;;;23.90;99.90;;;;;;5083068;28;19920;-69
2022/04/14 13:05:43;;;;;;;;;;;23.90;99.70;;;;;;5082391;28;19920;-69
2022/04/14 13:08:09;;;;;;;;;;;23.90;99.90;;;;;;5082896;28;19927;-68
2022/04/14 13:10:38;;;;;;;;;;;24.00;99.80;;;;;;5083033;28;19920;-69
2022/04/14 13:13:07;;;;;;;;;;;24.10;98.70;;;;;;5082914;28;20258;-69
2022/04/14 13:15:34;;;;;;;;;;;24.30;99.00;;;;;;5082125;28;19928;-69
2022/04/14 13:18:02;;;;;;;;;;;24.50;97.80;;;;;;5083015;28;19927;-69
2022/04/14 13:20:36;;;;;;;;;;;24.70;98.50;;;;;;5082883;28;19920;-69
2022/04/14 13:23:05;;;;;;;;;;;24.80;97.50;;;;;;5083326;28;20260;-69
2022/04/14 13:25:33;;;;;;;;;;;24.90;97.70;;;;;;5080490;28;19928;-69
2022/04/14 13:27:59;;;;;;;;;;;25.10;98.10;;;;;;5086438;28;19920;-69
2022/04/14 13:30:27;;;;;;;;;;;25.00;96.50;;;;;;5086070;28;19927;-69
2022/04/14 13:32:54;;;;;;;;;;;25.00;96.00;;;;;;5086729;28;19920;-69
2022/04/14 13:35:22;;;;;;;;;;;24.90;95.90;;;;;;5085854;28;19927;-69
2022/04/14 13:37:48;;;;;;;;;;;24.90;96.00;;;;;;5086426;28;20151;-69
2022/04/14 13:40:15;;;;;;;;;;;24.90;97.00;;;;;;5086143;28;19924;-69
2022/04/14 13:42:42;;;;;;;;;;;25.10;98.10;;;;;;5085601;28;19920;-69
2022/04/14 13:45:09;;;;;;;;;;;25.20;97.00;;;;;;5085978;28;20128;-69
2022/04/14 13:47:39;;;;;;;;;;;25.10;95.70;;;;;;5085551;28;19983;-69
2022/04/14 13:50:07;;;;;;;;;;;25.20;96.60;;;;;;5086052;28;19928;-69
2022/04/14 13:52:34;;;;;;;;;;;25.30;95.70;;;;;;5086072;28;19927;-69
2022/04/14 13:55:01;;;;;;;;;;;25.40;94.70;;;;;;5086075;28;20179;-68
2022/04/14 13:57:27;;;;;;;;;;;25.50;95.70;;;;;;5085790;28;19920;-69
2022/04/14 13:59:54;;;;;;;;;;;25.20;95.90;;;;;;5085579;28;20267;-69
2022/04/14 14:02:21;;;;;;;;;;;25.20;96.10;;;;;;5085902;28;19920;-69
2022/04/14 14:04:49;;;;;;;;;;;25.20;96.00;;;;;;5085781;28;19924;-68
2022/04/14 14:07:16;;;;;;;;;;;25.30;95.30;;;;;;5085988;28;19987;-69
2022/04/14 14:09:42;;;;;;;;;;;25.40;95.50;;;;;;5086092;28;19925;-69
2022/04/14 14:12:09;;;;;;;;;;;25.50;95.10;;;;;;5085474;28;19920;-69
2022/04/14 14:14:36;;;;;;;;;;;25.40;94.90;;;;;;5085577;28;19920;-69
2022/04/14 14:17:03;;;;;;;;;;;25.50;95.30;;;;;;5084448;28;19920;-71
2022/04/14 14:19:31;;;;;;;;;;;25.60;95.20;;;;;;5085438;28;19921;-71
2022/04/14 14:22:01;;;;;;;;;;;25.80;94.00;;;;;;5085643;28;19920;-70
2022/04/14 14:24:27;;;;;;;;;;;25.90;93.40;;;;;;5075559;28;19924;-70
2022/04/14 14:26:54;;;;;;;;;;;25.90;93.20;;;;;;5066107;28;19940;-70